Time;durP1;ratioP1;P1;durP2;ratioP2;P2;SDS_P1;SDS_P2;PMS_P1;PMS_P2;Temp;Humidity;BMP_temperature;BMP_pressure;BME280_temperature;BME280_humidity;BME280_pressure;Samples;Min_cycle;Max_cycle;Signal;HPM_P1;HPM_P2
2021/10/30 00:00:14;;;;;;;0.50;0.40;;;8.00;99.90;;;;;;5094252;28;20444;-86
2021/10/30 00:02:41;;;;;;;0.30;0.30;;;8.00;99.90;;;;;;5094081;28;20502;-86
2021/10/30 00:05:11;;;;;;;1.47;0.47;;;8.00;99.90;;;;;;5094113;28;20440;-86
2021/10/30 00:07:38;;;;;;;1.77;1.67;;;8.00;99.90;;;;;;5094194;28;20451;-86
2021/10/30 00:10:06;;;;;;;1.93;0.53;;;8.10;99.90;;;;;;5093728;28;20476;-86
2021/10/30 00:12:33;;;;;;;0.30;0.30;;;8.10;99.90;;;;;;5093970;28;20472;-86
2021/10/30 00:15:02;;;;;;;1.43;0.87;;;8.10;99.90;;;;;;5093916;28;20498;-86
2021/10/30 00:17:28;;;;;;;0.40;0.40;;;8.20;99.90;;;;;;5093418;28;20456;-86
2021/10/30 00:19:55;;;;;;;0.40;0.30;;;8.20;99.90;;;;;;5093648;28;20435;-86
2021/10/30 00:22:22;;;;;;;0.93;0.70;;;8.20;99.90;;;;;;5093601;28;20456;-85
2021/10/30 00:24:49;;;;;;;1.80;1.00;;;8.20;99.90;;;;;;5093845;28;20455;-86
2021/10/30 00:27:15;;;;;;;0.40;0.30;;;8.10;99.90;;;;;;5094294;28;20447;-86
2021/10/30 00:29:42;;;;;;;1.33;0.50;;;8.10;99.90;;;;;;5093308;28;20492;-86
2021/10/30 00:32:11;;;;;;;1.03;0.90;;;8.00;99.90;;;;;;5093771;28;20470;-86
2021/10/30 00:34:38;;;;;;;0.50;0.50;;;8.10;99.90;;;;;;5093804;28;20775;-86
2021/10/30 00:37:05;;;;;;;0.63;0.50;;;8.00;99.90;;;;;;5093429;28;20455;-86
2021/10/30 00:39:32;;;;;;;3.07;0.83;;;8.00;99.90;;;;;;5093714;28;20444;-86
2021/10/30 00:41:59;;;;;;;1.23;0.60;;;8.00;99.90;;;;;;5093649;28;20471;-86
2021/10/30 00:44:26;;;;;;;0.80;0.80;;;8.00;99.90;;;;;;5093669;28;20459;-86
2021/10/30 00:46:54;;;;;;;2.10;0.90;;;8.00;99.90;;;;;;5093763;28;20444;-86
2021/10/30 00:49:24;;;;;;;0.43;0.43;;;8.00;99.90;;;;;;5093619;28;20480;-86
2021/10/30 00:51:54;;;;;;;1.00;0.50;;;8.00;99.90;;;;;;5093512;28;20432;-86
2021/10/30 00:54:21;;;;;;;0.40;0.40;;;7.90;99.90;;;;;;5094191;28;20452;-85
2021/10/30 00:56:50;;;;;;;0.30;0.27;;;7.90;99.90;;;;;;5093453;28;20452;-86
2021/10/30 00:59:17;;;;;;;0.40;0.37;;;7.90;99.90;;;;;;5093855;28;20435;-86
2021/10/30 01:01:47;;;;;;;0.73;0.73;;;7.90;99.90;;;;;;5093660;28;20455;-86
2021/10/30 01:04:14;;;;;;;1.30;1.20;;;7.80;99.90;;;;;;5093617;28;20440;-86
2021/10/30 01:06:45;;;;;;;1.10;0.50;;;7.80;99.90;;;;;;5093632;28;20452;-86
2021/10/30 01:09:11;;;;;;;0.30;0.30;;;7.80;99.90;;;;;;5093457;28;20480;-85
2021/10/30 01:11:40;;;;;;;5.60;0.50;;;7.80;99.90;;;;;;5093304;28;20440;-86
2021/10/30 01:14:08;;;;;;;0.50;0.40;;;7.80;99.90;;;;;;5093369;28;20450;-86
2021/10/30 01:16:35;;;;;;;0.40;0.30;;;7.80;99.90;;;;;;5093431;28;20526;-86
2021/10/30 01:19:02;;;;;;;0.60;0.37;;;7.70;99.90;;;;;;5093307;28;20455;-86
2021/10/30 01:21:31;;;;;;;0.40;0.30;;;7.70;99.90;;;;;;5093305;28;20450;-86
2021/10/30 01:24:00;;;;;;;0.67;0.47;;;7.60;99.90;;;;;;5093404;28;20514;-86
2021/10/30 01:26:27;;;;;;;0.30;0.30;;;7.60;99.90;;;;;;5093096;28;20950;-86
2021/10/30 01:28:54;;;;;;;0.93;0.93;;;7.50;99.90;;;;;;5093241;28;20440;-86
2021/10/30 01:31:21;;;;;;;0.67;0.67;;;7.50;99.90;;;;;;5096623;28;20485;-85
2021/10/30 01:33:49;;;;;;;1.03;0.97;;;7.50;99.90;;;;;;5096940;28;20467;-86
2021/10/30 01:36:18;;;;;;;0.50;0.43;;;7.40;99.90;;;;;;5096997;28;20459;-86
2021/10/30 01:38:46;;;;;;;0.70;0.70;;;7.40;99.90;;;;;;5096582;28;20943;-86
2021/10/30 01:41:13;;;;;;;0.70;0.70;;;7.40;99.90;;;;;;5096537;28;20436;-86
2021/10/30 01:43:40;;;;;;;0.50;0.50;;;7.50;99.90;;;;;;5096369;28;20993;-85
2021/10/30 01:46:07;;;;;;;3.43;1.20;;;7.40;99.90;;;;;;5096840;28;20451;-86
2021/10/30 01:48:35;;;;;;;0.77;0.77;;;7.40;99.90;;;;;;5096683;28;20447;-86
2021/10/30 01:51:03;;;;;;;0.60;0.60;;;7.40;99.90;;;;;;5096688;28;20483;-86
2021/10/30 01:53:30;;;;;;;1.30;0.73;;;7.40;99.90;;;;;;5096559;28;20472;-86
2021/10/30 01:55:58;;;;;;;0.50;0.50;;;7.40;99.90;;;;;;5096567;28;20456;-86
2021/10/30 01:58:25;;;;;;;0.33;0.30;;;7.40;99.90;;;;;;5096566;28;20927;-86
2021/10/30 02:00:54;;;;;;;0.40;0.40;;;7.40;99.90;;;;;;5096634;28;20444;-86
2021/10/30 02:03:23;;;;;;;0.80;0.70;;;7.40;99.90;;;;;;5096452;28;20479;-86
2021/10/30 02:05:50;;;;;;;0.30;0.30;;;7.40;99.90;;;;;;5096417;28;20448;-86
2021/10/30 02:08:16;;;;;;;1.27;0.37;;;7.40;99.90;;;;;;5096351;28;20455;-86
2021/10/30 02:10:43;;;;;;;0.30;0.20;;;7.30;99.90;;;;;;5096319;28;20479;-86
2021/10/30 02:13:11;;;;;;;0.33;0.33;;;7.30;99.90;;;;;;5095949;28;21055;-86
2021/10/30 02:15:38;;;;;;;0.30;0.30;;;7.20;99.90;;;;;;5095919;28;20943;-86
2021/10/30 02:18:06;;;;;;;0.80;0.70;;;7.20;99.90;;;;;;5096191;28;20454;-85
2021/10/30 02:20:34;;;;;;;0.60;0.60;;;7.10;99.90;;;;;;5095831;28;20808;-86
2021/10/30 02:23:01;;;;;;;1.53;0.87;;;7.10;99.90;;;;;;5096027;28;20877;-86
2021/10/30 02:25:28;;;;;;;0.40;0.40;;;7.10;99.90;;;;;;5096135;28;20450;-86
2021/10/30 02:27:54;;;;;;;0.33;0.30;;;7.00;99.90;;;;;;5096065;28;20452;-85
2021/10/30 02:30:23;;;;;;;0.40;0.30;;;7.00;99.90;;;;;;5095652;28;20491;-86
2021/10/30 02:32:50;;;;;;;0.30;0.30;;;7.00;99.90;;;;;;5095853;28;20467;-86
2021/10/30 02:35:17;;;;;;;1.90;0.40;;;7.00;99.90;;;;;;5095848;28;20456;-86
2021/10/30 02:37:44;;;;;;;0.50;0.50;;;7.00;99.90;;;;;;5095774;28;20807;-86
2021/10/30 02:40:11;;;;;;;0.67;0.67;;;7.00;99.90;;;;;;5095330;28;20443;-85
2021/10/30 02:42:38;;;;;;;1.30;1.30;;;6.90;99.90;;;;;;5095354;28;20456;-85
2021/10/30 02:45:07;;;;;;;0.63;0.63;;;6.90;99.90;;;;;;5095711;28;20444;-86
2021/10/30 02:47:35;;;;;;;1.63;1.53;;;7.00;99.90;;;;;;5095643;28;20463;-86
2021/10/30 02:50:02;;;;;;;0.50;0.50;;;7.10;99.90;;;;;;5095595;28;20493;-86
2021/10/30 02:52:29;;;;;;;0.50;0.50;;;7.10;99.90;;;;;;5095438;28;20841;-86
2021/10/30 02:54:55;;;;;;;0.77;0.40;;;7.10;99.90;;;;;;5095251;28;20972;-86
2021/10/30 02:57:22;;;;;;;0.40;0.40;;;7.10;99.90;;;;;;5095439;28;20471;-86
2021/10/30 02:59:49;;;;;;;0.30;0.30;;;7.10;99.90;;;;;;5095236;28;20440;-86
2021/10/30 03:02:15;;;;;;;0.40;0.40;;;7.10;99.90;;;;;;5095300;28;20555;-86
2021/10/30 03:04:43;;;;;;;0.40;0.40;;;7.10;99.90;;;;;;5095385;28;20497;-86
2021/10/30 03:07:10;;;;;;;0.33;0.30;;;7.10;99.90;;;;;;5095213;28;20447;-86
2021/10/30 03:09:37;;;;;;;0.47;0.47;;;7.10;99.90;;;;;;5100443;28;20450;-86
2021/10/30 03:12:04;;;;;;;0.30;0.30;;;7.10;99.90;;;;;;5095020;28;20468;-86
2021/10/30 03:14:31;;;;;;;0.40;0.40;;;7.10;99.90;;;;;;5094827;28;20943;-86
2021/10/30 03:16:58;;;;;;;0.40;0.30;;;7.10;99.90;;;;;;5094774;28;20432;-86
2021/10/30 03:19:24;;;;;;;0.53;0.53;;;7.10;99.90;;;;;;5094804;28;20455;-86
2021/10/30 03:21:52;;;;;;;0.40;0.40;;;7.20;99.90;;;;;;5094783;28;20790;-86
2021/10/30 03:24:19;;;;;;;0.40;0.40;;;7.20;99.90;;;;;;5094572;28;20448;-85
2021/10/30 03:26:46;;;;;;;1.13;0.67;;;7.20;99.90;;;;;;5094835;28;20459;-86
2021/10/30 03:29:12;;;;;;;0.30;0.30;;;7.30;99.90;;;;;;5094603;28;20447;-86
2021/10/30 03:31:39;;;;;;;0.37;0.27;;;7.30;99.90;;;;;;5094251;28;20982;-86
2021/10/30 03:34:06;;;;;;;0.40;0.40;;;7.30;99.90;;;;;;5094729;28;20428;-86
2021/10/30 03:36:32;;;;;;;0.60;0.40;;;7.30;99.90;;;;;;5094416;28;20443;-85
2021/10/30 03:39:01;;;;;;;0.30;0.30;;;7.30;99.90;;;;;;5094609;28;20493;-85
2021/10/30 03:41:27;;;;;;;0.40;0.40;;;7.20;99.90;;;;;;5094594;28;20448;-86
2021/10/30 03:43:54;;;;;;;0.70;0.30;;;7.20;99.90;;;;;;5094473;28;20843;-86
2021/10/30 03:46:21;;;;;;;0.90;0.77;;;7.10;99.90;;;;;;5094483;28;20459;-86
2021/10/30 03:48:48;;;;;;;0.30;0.30;;;7.00;99.90;;;;;;5094488;28;20444;-85
2021/10/30 03:51:14;;;;;;;0.47;0.43;;;7.00;99.90;;;;;;5093827;28;20991;-85
2021/10/30 03:53:41;;;;;;;0.50;0.50;;;6.90;99.90;;;;;;5093691;28;20464;-86
2021/10/30 03:56:09;;;;;;;0.50;0.50;;;6.90;99.90;;;;;;5094035;28;20934;-85
2021/10/30 03:58:36;;;;;;;0.50;0.50;;;6.90;99.90;;;;;;5094210;28;20448;-86
2021/10/30 04:01:02;;;;;;;1.23;0.33;;;6.80;99.90;;;;;;5094333;28;20436;-85
2021/10/30 04:03:29;;;;;;;0.60;0.60;;;6.80;99.90;;;;;;5093842;28;20471;-85
2021/10/30 04:05:56;;;;;;;0.30;0.30;;;6.80;99.90;;;;;;5094138;28;20827;-86
2021/10/30 04:08:23;;;;;;;0.73;0.73;;;6.70;99.90;;;;;;5094134;28;20444;-86
2021/10/30 04:10:49;;;;;;;0.30;0.30;;;6.70;99.90;;;;;;5093982;28;20477;-86
2021/10/30 04:13:17;;;;;;;0.40;0.30;;;6.60;99.90;;;;;;5093684;28;21001;-86
2021/10/30 04:15:44;;;;;;;0.30;0.30;;;6.60;99.90;;;;;;5094008;28;20460;-86
2021/10/30 04:18:11;;;;;;;0.50;0.50;;;6.60;99.90;;;;;;5093916;28;20444;-86
2021/10/30 04:20:37;;;;;;;0.30;0.30;;;6.60;99.90;;;;;;5093869;28;20448;-86
2021/10/30 04:23:04;;;;;;;1.10;0.33;;;6.50;99.90;;;;;;5093875;28;20868;-87
2021/10/30 04:25:31;;;;;;;0.40;0.30;;;6.50;99.90;;;;;;5093886;28;20448;-86
2021/10/30 04:27:58;;;;;;;0.50;0.50;;;6.50;99.90;;;;;;5093955;28;20452;-86
2021/10/30 04:30:27;;;;;;;0.30;0.30;;;6.50;99.90;;;;;;5093388;28;20487;-86
2021/10/30 04:32:53;;;;;;;0.30;0.30;;;6.50;99.90;;;;;;5093364;28;20983;-85
2021/10/30 04:35:20;;;;;;;0.43;0.43;;;6.50;99.90;;;;;;5093865;28;20436;-86
2021/10/30 04:37:47;;;;;;;0.80;0.33;;;6.40;99.90;;;;;;5093760;28;20447;-86
2021/10/30 04:40:14;;;;;;;1.33;0.67;;;6.40;99.90;;;;;;5093747;28;20440;-86
2021/10/30 04:42:41;;;;;;;0.30;0.30;;;6.40;99.90;;;;;;5093343;28;20478;-86
2021/10/30 04:45:08;;;;;;;0.30;0.30;;;6.40;99.90;;;;;;5093659;28;20444;-85
2021/10/30 04:47:36;;;;;;;3.97;0.63;;;6.30;99.90;;;;;;5093399;28;20447;-86
2021/10/30 04:50:04;;;;;;;0.40;0.30;;;6.40;99.90;;;;;;5093494;28;20448;-86
2021/10/30 04:52:31;;;;;;;0.30;0.30;;;6.30;99.90;;;;;;5093862;28;20470;-86
2021/10/30 04:54:57;;;;;;;0.70;0.37;;;6.30;99.90;;;;;;5098219;28;20471;-87
2021/10/30 04:57:24;;;;;;;0.30;0.30;;;6.30;99.90;;;;;;5101058;28;20452;-87
2021/10/30 04:59:51;;;;;;;0.30;0.30;;;6.30;99.90;;;;;;5095570;28;20884;-87
2021/10/30 05:02:18;;;;;;;0.30;0.30;;;6.30;99.90;;;;;;5093641;28;20460;-87
2021/10/30 05:04:46;;;;;;;0.40;0.40;;;6.30;99.90;;;;;;5097149;28;20571;-87
2021/10/30 05:07:13;;;;;;;0.70;0.70;;;6.30;99.90;;;;;;5098150;28;20440;-88
2021/10/30 05:09:40;;;;;;;0.60;0.60;;;6.30;99.90;;;;;;5097957;28;20868;-88
2021/10/30 05:12:07;;;;;;;1.10;1.10;;;6.20;99.90;;;;;;5097825;28;20492;-88
2021/10/30 05:14:34;;;;;;;2.50;0.60;;;6.20;99.90;;;;;;5097822;28;20942;-88
2021/10/30 05:17:01;;;;;;;0.83;0.83;;;6.20;99.90;;;;;;5097788;28;20443;-88
2021/10/30 05:19:27;;;;;;;0.30;0.20;;;6.10;99.90;;;;;;5097617;28;20459;-87
2021/10/30 05:21:55;;;;;;;0.40;0.40;;;6.00;99.90;;;;;;5097446;28;20810;-86
2021/10/30 05:24:22;;;;;;;0.77;0.50;;;5.90;99.90;;;;;;5097251;28;20476;-86
2021/10/30 05:26:49;;;;;;;0.40;0.40;;;5.90;99.90;;;;;;5096817;28;20969;-86
2021/10/30 05:29:16;;;;;;;0.60;0.43;;;5.90;99.90;;;;;;5097015;28;20459;-86
2021/10/30 05:31:42;;;;;;;0.53;0.53;;;5.80;99.90;;;;;;5096939;28;20517;-85
2021/10/30 05:34:09;;;;;;;0.40;0.40;;;5.80;99.90;;;;;;5096725;28;20455;-85
2021/10/30 05:36:37;;;;;;;0.37;0.30;;;5.80;99.90;;;;;;5096875;28;20836;-86
2021/10/30 05:39:11;;;;;;;0.40;0.40;;;5.90;99.90;;;;;;5096917;28;20444;-86
2021/10/30 05:41:37;;;;;;;0.40;0.40;;;5.90;99.90;;;;;;5096498;28;20926;-88
2021/10/30 05:44:04;;;;;;;0.37;0.37;;;5.90;99.90;;;;;;5096909;28;21016;-87
2021/10/30 05:46:31;;;;;;;2.27;1.30;;;5.80;99.90;;;;;;5097210;28;20451;-87
2021/10/30 05:49:00;;;;;;;0.33;0.33;;;5.80;99.90;;;;;;5097122;28;20792;-87
2021/10/30 05:51:26;;;;;;;1.23;0.80;;;5.80;99.90;;;;;;5096955;28;20525;-87
2021/10/30 05:53:53;;;;;;;0.57;0.57;;;5.80;99.90;;;;;;5096980;28;20474;-87
2021/10/30 05:56:21;;;;;;;0.90;0.60;;;5.80;99.90;;;;;;5097010;28;20447;-87
2021/10/30 05:58:48;;;;;;;0.70;0.30;;;5.90;99.90;;;;;;5096538;28;20440;-87
2021/10/30 06:01:14;;;;;;;0.63;0.63;;;5.90;99.90;;;;;;5096952;28;20808;-87
2021/10/30 06:03:41;;;;;;;0.40;0.40;;;5.90;99.90;;;;;;5096863;28;20468;-87
2021/10/30 06:06:09;;;;;;;0.30;0.30;;;5.90;99.90;;;;;;5096480;28;20444;-87
2021/10/30 06:08:35;;;;;;;0.50;0.50;;;6.00;99.90;;;;;;5096871;28;20497;-88
2021/10/30 06:11:02;;;;;;;0.40;0.40;;;6.00;99.90;;;;;;5096647;28;20479;-85
2021/10/30 06:13:30;;;;;;;0.50;0.50;;;6.00;99.90;;;;;;5096206;28;20837;-85
2021/10/30 06:15:57;;;;;;;0.43;0.40;;;6.00;99.90;;;;;;5095400;28;20808;-83
2021/10/30 06:18:24;;;;;;;0.30;0.30;;;6.00;99.90;;;;;;5096512;28;20801;-84
2021/10/30 06:20:50;;;;;;;0.30;0.30;;;6.00;99.90;;;;;;5096123;28;20448;-84
2021/10/30 06:23:17;;;;;;;0.40;0.40;;;6.00;99.90;;;;;;5095914;28;20472;-83
2021/10/30 06:25:45;;;;;;;0.40;0.30;;;6.00;99.90;;;;;;5096059;28;20444;-83
2021/10/30 06:28:12;;;;;;;0.40;0.40;;;5.90;99.90;;;;;;5095961;28;20565;-85
2021/10/30 06:30:40;;;;;;;0.40;0.40;;;6.00;99.90;;;;;;5095441;28;20541;-85
2021/10/30 06:33:07;;;;;;;0.30;0.30;;;6.00;99.90;;;;;;5095969;28;20471;-85
2021/10/30 06:35:34;;;;;;;0.40;0.40;;;6.00;99.90;;;;;;5095690;28;20805;-85
2021/10/30 06:38:01;;;;;;;0.30;0.30;;;6.10;99.90;;;;;;5095874;28;20475;-85
2021/10/30 06:40:28;;;;;;;0.93;0.93;;;6.10;99.90;;;;;;5095713;28;20440;-86
2021/10/30 06:42:55;;;;;;;0.70;0.57;;;6.20;99.90;;;;;;5095612;28;20817;-86
2021/10/30 06:45:21;;;;;;;0.30;0.30;;;6.20;99.90;;;;;;5095338;28;20539;-86
2021/10/30 06:47:49;;;;;;;0.90;0.90;;;6.20;99.90;;;;;;5095611;28;20454;-86
2021/10/30 06:50:22;;;;;;;1.33;1.23;;;6.30;99.90;;;;;;5095482;28;20451;-86
2021/10/30 06:52:51;;;;;;;0.40;0.40;;;6.30;99.90;;;;;;5095656;28;20491;-86
2021/10/30 06:55:18;;;;;;;0.37;0.37;;;6.40;99.90;;;;;;5095608;28;20444;-85
2021/10/30 06:57:46;;;;;;;1.07;1.03;;;6.40;99.90;;;;;;5095270;28;20444;-85
2021/10/30 07:00:14;;;;;;;0.33;0.33;;;6.50;99.90;;;;;;5095572;28;20452;-87
2021/10/30 07:02:42;;;;;;;1.17;1.17;;;6.60;99.90;;;;;;5096221;28;20467;-88
2021/10/30 07:05:10;;;;;;;0.40;0.40;;;6.60;99.90;;;;;;5096152;28;20501;-87
2021/10/30 07:07:37;;;;;;;1.23;1.17;;;6.80;99.90;;;;;;5095290;28;20939;-87
2021/10/30 07:10:05;;;;;;;1.23;0.40;;;6.90;99.90;;;;;;5095715;28;20448;-87
2021/10/30 07:12:34;;;;;;;0.30;0.30;;;7.00;99.90;;;;;;5095347;28;20475;-87
2021/10/30 07:15:00;;;;;;;1.23;0.60;;;7.10;99.90;;;;;;5095511;28;20477;-86
2021/10/30 07:17:27;;;;;;;0.50;0.50;;;7.30;99.90;;;;;;5095465;28;20451;-87
2021/10/30 07:19:54;;;;;;;0.30;0.30;;;7.40;99.90;;;;;;5094733;28;20943;-86
2021/10/30 07:22:23;;;;;;;0.50;0.50;;;7.40;99.90;;;;;;5095074;28;21027;-85
2021/10/30 07:24:50;;;;;;;0.30;0.30;;;7.50;99.90;;;;;;5096659;28;20428;-86
2021/10/30 07:27:18;;;;;;;0.30;0.30;;;7.50;99.90;;;;;;5098841;28;20444;-86
2021/10/30 07:29:48;;;;;;;0.30;0.30;;;7.60;99.90;;;;;;5095584;28;20512;-87
2021/10/30 07:32:14;;;;;;;0.43;0.40;;;7.60;99.90;;;;;;5095092;28;20916;-87
2021/10/30 07:34:41;;;;;;;0.70;0.70;;;7.70;99.90;;;;;;5094683;28;20440;-87
2021/10/30 07:37:08;;;;;;;1.67;0.80;;;7.80;99.90;;;;;;5095026;28;20444;-87
2021/10/30 07:39:36;;;;;;;0.77;0.77;;;7.90;99.90;;;;;;5094961;28;20448;-87
2021/10/30 07:42:04;;;;;;;0.50;0.50;;;8.00;99.90;;;;;;5095008;28;20464;-87
2021/10/30 07:44:31;;;;;;;3.73;1.40;;;8.00;99.90;;;;;;5094692;28;20969;-87
2021/10/30 07:46:58;;;;;;;3.17;0.63;;;8.10;99.90;;;;;;5095320;28;20448;-87
2021/10/30 07:49:24;;;;;;;0.60;0.43;;;8.00;99.90;;;;;;5094568;28;20444;-88
2021/10/30 07:51:51;;;;;;;0.43;0.43;;;8.10;99.90;;;;;;5094740;28;20550;-88
2021/10/30 07:54:18;;;;;;;1.27;0.47;;;8.10;99.90;;;;;;5094801;28;20448;-88
2021/10/30 07:56:46;;;;;;;0.40;0.30;;;8.10;99.90;;;;;;5094861;28;20486;-86
2021/10/30 07:59:13;;;;;;;0.40;0.40;;;8.20;99.90;;;;;;5094637;28;20432;-88
2021/10/30 08:01:40;;;;;;;2.77;1.20;;;8.30;99.90;;;;;;5094642;28;20455;-88
2021/10/30 08:04:07;;;;;;;0.67;0.60;;;8.40;99.90;;;;;;5094783;28;20447;-88
2021/10/30 08:06:33;;;;;;;1.73;0.70;;;8.50;99.90;;;;;;5094782;28;20452;-87
2021/10/30 08:09:00;;;;;;;0.53;0.50;;;8.60;99.90;;;;;;5094371;28;20432;-88
2021/10/30 08:11:27;;;;;;;0.90;0.90;;;8.70;99.90;;;;;;5095162;28;20498;-88
2021/10/30 08:13:55;;;;;;;2.93;0.87;;;8.90;99.90;;;;;;5094468;28;20877;-88
2021/10/30 08:16:22;;;;;;;0.53;0.40;;;9.10;99.90;;;;;;5094403;28;20518;-88
2021/10/30 08:18:49;;;;;;;1.90;1.80;;;9.20;99.90;;;;;;5094549;28;20447;-87
2021/10/30 08:21:16;;;;;;;0.50;0.37;;;9.40;99.90;;;;;;5094404;28;20455;-88
2021/10/30 08:23:42;;;;;;;1.47;0.83;;;9.50;99.90;;;;;;5093985;28;20478;-88
2021/10/30 08:26:09;;;;;;;1.00;0.70;;;9.60;99.90;;;;;;5094498;28;20432;-87
2021/10/30 08:28:36;;;;;;;1.10;0.53;;;9.70;99.90;;;;;;5094198;28;20437;-89
2021/10/30 08:31:04;;;;;;;1.33;0.40;;;9.80;99.90;;;;;;5093842;28;20475;-88
2021/10/30 08:33:31;;;;;;;1.57;0.50;;;9.80;99.90;;;;;;5093941;28;20486;-87
2021/10/30 08:35:58;;;;;;;3.53;1.40;;;9.90;99.90;;;;;;5094220;28;20466;-88
2021/10/30 08:38:24;;;;;;;1.70;1.17;;;10.00;99.90;;;;;;5093798;28;20452;-87
2021/10/30 08:40:52;;;;;;;0.40;0.37;;;10.00;99.90;;;;;;5094317;28;20448;-87
2021/10/30 08:43:21;;;;;;;0.60;0.60;;;10.00;99.90;;;;;;5094138;28;21013;-87
2021/10/30 08:45:48;;;;;;;3.20;0.70;;;10.10;99.90;;;;;;5093925;28;20417;-87
2021/10/30 08:48:20;;;;;;;0.40;0.40;;;10.10;99.90;;;;;;5094294;28;20464;-87
2021/10/30 08:50:48;;;;;;;0.80;0.80;;;10.10;99.90;;;;;;5094270;28;20432;-88
2021/10/30 08:53:15;;;;;;;0.60;0.60;;;10.10;99.90;;;;;;5094005;28;20990;-88
2021/10/30 08:55:42;;;;;;;0.50;0.50;;;10.10;99.90;;;;;;5094389;28;20800;-88
2021/10/30 08:58:10;;;;;;;0.80;0.80;;;10.10;99.90;;;;;;5094144;28;20435;-88
2021/10/30 09:00:40;;;;;;;0.90;0.60;;;10.20;99.90;;;;;;5094099;28;20432;-87
2021/10/30 09:03:08;;;;;;;0.70;0.57;;;10.20;99.90;;;;;;5093906;28;20490;-87
2021/10/30 09:05:37;;;;;;;0.60;0.60;;;10.20;99.90;;;;;;5093715;28;20443;-85
2021/10/30 09:08:07;;;;;;;0.40;0.40;;;10.20;99.90;;;;;;5093911;28;20444;-87
2021/10/30 09:10:36;;;;;;;0.70;0.70;;;10.20;99.90;;;;;;5094283;28;20483;-86
2021/10/30 09:13:06;;;;;;;1.93;0.60;;;10.20;99.90;;;;;;5093724;28;20491;-88
2021/10/30 09:15:35;;;;;;;0.83;0.40;;;10.20;99.90;;;;;;5093807;28;20428;-87
2021/10/30 09:18:03;;;;;;;3.63;0.53;;;10.10;99.90;;;;;;5093815;28;20435;-86
2021/10/30 09:20:32;;;;;;;1.00;0.90;;;10.10;99.90;;;;;;5093792;28;20420;-88
2021/10/30 09:23:00;;;;;;;1.20;0.67;;;10.00;99.90;;;;;;5093771;28;20455;-87
2021/10/30 09:25:27;;;;;;;0.40;0.37;;;10.00;99.90;;;;;;5093947;28;20411;-88
2021/10/30 09:27:55;;;;;;;2.10;0.97;;;10.00;99.90;;;;;;5094095;28;20451;-88
2021/10/30 09:30:26;;;;;;;0.40;0.40;;;10.00;99.90;;;;;;5096966;28;20485;-88
2021/10/30 09:32:56;;;;;;;0.70;0.70;;;10.00;99.90;;;;;;5097066;28;20487;-83
2021/10/30 09:35:24;;;;;;;4.33;0.67;;;10.00;99.90;;;;;;5094107;28;20436;-88
2021/10/30 09:37:52;;;;;;;0.73;0.73;;;10.00;99.90;;;;;;5093871;28;20424;-89
2021/10/30 09:40:23;;;;;;;0.40;0.40;;;10.00;99.90;;;;;;5094652;28;20841;-82
2021/10/30 09:43:07;;;;;;;0.53;0.53;;;10.10;99.90;;;;;;5093667;28;20514;-89
2021/10/30 09:45:37;;;;;;;0.60;0.60;;;10.10;99.90;;;;;;5091762;28;21039;-88
2021/10/30 09:48:05;;;;;;;0.47;0.40;;;10.00;99.90;;;;;;5094796;28;20463;-88
2021/10/30 09:50:32;;;;;;;0.50;0.40;;;10.00;99.90;;;;;;5095176;28;20805;-88
2021/10/30 09:53:01;;;;;;;0.73;0.50;;;10.10;99.90;;;;;;5097381;28;20912;-87
2021/10/30 09:55:29;;;;;;;1.13;0.63;;;10.00;99.90;;;;;;5097218;28;20486;-88
2021/10/30 09:58:04;;;;;;;0.70;0.57;;;10.10;99.90;;;;;;5097335;28;20432;-88
2021/10/30 10:00:32;;;;;;;1.07;0.50;;;10.20;99.90;;;;;;5097208;28;20423;-88
2021/10/30 10:03:01;;;;;;;0.60;0.60;;;10.20;99.90;;;;;;5096564;28;20468;-88
2021/10/30 10:05:29;;;;;;;2.20;0.50;;;10.10;99.90;;;;;;5096876;28;20413;-87
2021/10/30 10:07:56;;;;;;;0.43;0.40;;;10.10;99.90;;;;;;5096426;28;20432;-86
2021/10/30 10:10:23;;;;;;;0.73;0.50;;;10.00;99.90;;;;;;5096489;28;20442;-87
2021/10/30 10:12:55;;;;;;;0.47;0.47;;;10.00;99.90;;;;;;5096859;28;20479;-87
2021/10/30 10:15:22;;;;;;;3.60;0.60;;;10.10;99.90;;;;;;5101096;28;20428;-86
2021/10/30 10:17:50;;;;;;;4.53;0.90;;;10.00;99.90;;;;;;5101086;28;20896;-86
2021/10/30 10:20:17;;;;;;;0.83;0.40;;;10.10;99.90;;;;;;5099532;28;20436;-86
2021/10/30 10:22:45;;;;;;;0.50;0.30;;;10.10;99.90;;;;;;5096708;28;20460;-87
2021/10/30 10:25:31;;;;;;;1.03;0.57;;;10.10;99.90;;;;;;5096457;28;20438;-87
2021/10/30 10:28:20;;;;;;;0.77;0.77;;;10.10;99.90;;;;;;5095915;28;20435;-85
2021/10/30 10:30:56;;;;;;;1.83;0.57;;;10.20;99.90;;;;;;5095652;28;20468;-85
2021/10/30 10:33:23;;;;;;;2.10;0.60;;;10.20;99.90;;;;;;5095473;28;20522;-85
2021/10/30 10:36:19;;;;;;;0.70;0.50;;;10.30;99.90;;;;;;5096002;28;20462;-86
2021/10/30 10:39:18;;;;;;;0.50;0.50;;;10.40;99.90;;;;;;5095927;28;20428;-86
2021/10/30 10:41:56;;;;;;;2.63;0.40;;;10.40;99.90;;;;;;5095714;28;20433;-85
2021/10/30 10:44:59;;;;;;;0.90;0.60;;;10.50;99.90;;;;;;5095381;28;20908;-85
2021/10/30 10:47:58;;;;;;;0.50;0.50;;;10.50;99.90;;;;;;5096416;28;20478;-85
2021/10/30 10:50:35;;;;;;;0.77;0.50;;;10.50;99.90;;;;;;5079039;28;20448;-86
2021/10/30 10:53:25;;;;;;;1.67;0.80;;;10.50;99.90;;;;;;5095459;28;20519;-85
2021/10/30 10:56:25;;;;;;;1.73;0.80;;;10.40;99.90;;;;;;5095336;28;20949;-87
2021/10/30 10:59:19;;;;;;;1.40;0.77;;;10.40;99.90;;;;;;5095505;28;20443;-87
2021/10/30 11:02:18;;;;;;;0.30;0.30;;;10.40;99.90;;;;;;5095120;28;20433;-87
2021/10/30 11:05:24;;;;;;;0.53;0.53;;;10.40;99.90;;;;;;5095427;28;20444;-87
2021/10/30 11:08:27;;;;;;;0.93;0.40;;;10.40;99.90;;;;;;5095186;28;20428;-87
2021/10/30 11:11:12;;;;;;;1.27;0.90;;;10.50;99.90;;;;;;5084448;28;20544;-87
2021/10/30 11:13:46;;;;;;;0.60;0.50;;;10.50;99.90;;;;;;5095166;28;20487;-87
2021/10/30 11:16:13;;;;;;;0.37;0.37;;;10.60;99.90;;;;;;5095043;28;20439;-87
2021/10/30 11:18:48;;;;;;;5.43;0.90;;;10.60;99.90;;;;;;5095129;28;20443;-87
2021/10/30 11:21:18;;;;;;;0.80;0.80;;;10.70;99.90;;;;;;5094963;28;20970;-86
2021/10/30 11:23:48;;;;;;;0.97;0.50;;;10.70;99.90;;;;;;5094870;28;20464;-86
2021/10/30 11:26:19;;;;;;;0.50;0.50;;;10.70;99.90;;;;;;5094932;28;20416;-87
2021/10/30 11:28:46;;;;;;;0.60;0.60;;;10.70;99.90;;;;;;5094886;28;20436;-86
2021/10/30 11:31:15;;;;;;;1.20;0.70;;;10.70;99.90;;;;;;5094594;28;20464;-87
2021/10/30 11:33:42;;;;;;;1.80;0.90;;;10.80;99.90;;;;;;5094003;28;20994;-86
2021/10/30 11:36:10;;;;;;;1.30;0.63;;;10.70;99.90;;;;;;5094741;28;20432;-86
2021/10/30 11:38:39;;;;;;;1.43;1.33;;;10.70;99.90;;;;;;5094505;28;20890;-86
2021/10/30 11:41:10;;;;;;;1.03;0.73;;;10.70;99.90;;;;;;5094939;28;20433;-86
2021/10/30 11:43:38;;;;;;;0.50;0.50;;;10.70;99.90;;;;;;5094412;28;20835;-86
2021/10/30 11:46:08;;;;;;;0.87;0.70;;;10.70;99.90;;;;;;5094428;28;20435;-86
2021/10/30 11:48:37;;;;;;;3.33;1.20;;;10.60;99.90;;;;;;5094515;28;20429;-86
2021/10/30 11:51:04;;;;;;;2.53;0.60;;;10.60;99.90;;;;;;5094676;28;20487;-86
2021/10/30 11:53:32;;;;;;;1.33;0.50;;;10.60;99.90;;;;;;5094318;28;20498;-86
2021/10/30 11:56:01;;;;;;;0.50;0.50;;;10.60;99.90;;;;;;5094362;28;20459;-83
2021/10/30 11:58:39;;;;;;;0.63;0.60;;;10.50;99.90;;;;;;5094338;28;20880;-83
2021/10/30 12:01:22;;;;;;;0.40;0.40;;;10.30;99.90;;;;;;5094264;28;20482;-83
2021/10/30 12:03:49;;;;;;;0.50;0.50;;;10.10;99.90;;;;;;5094211;28;20507;-83
2021/10/30 12:06:17;;;;;;;0.50;0.50;;;9.90;99.90;;;;;;5094114;28;20475;-84
2021/10/30 12:08:43;;;;;;;1.10;1.10;;;9.80;99.90;;;;;;5094055;28;20819;-83
2021/10/30 12:11:10;;;;;;;0.50;0.47;;;9.70;99.90;;;;;;5093983;28;20459;-83
2021/10/30 12:13:46;;;;;;;2.03;0.70;;;9.60;99.90;;;;;;5093158;28;20558;-83
2021/10/30 12:16:13;;;;;;;0.50;0.50;;;9.60;99.90;;;;;;5093995;28;20435;-83
2021/10/30 12:18:41;;;;;;;4.43;2.30;;;9.50;99.90;;;;;;5093903;28;20447;-83
2021/10/30 12:21:10;;;;;;;0.70;0.70;;;9.60;99.90;;;;;;5093815;28;20502;-83
2021/10/30 12:23:57;;;;;;;7.93;0.80;;;9.60;99.90;;;;;;5093760;28;20468;-82
2021/10/30 12:26:26;;;;;;;2.87;0.53;;;9.60;99.90;;;;;;5093980;28;20501;-82
2021/10/30 12:28:55;;;;;;;0.50;0.50;;;9.60;99.90;;;;;;5096435;28;20467;-83
2021/10/30 12:31:31;;;;;;;0.40;0.40;;;9.60;99.90;;;;;;5093489;28;20479;-83
2021/10/30 12:33:59;;;;;;;0.40;0.40;;;9.60;99.90;;;;;;5093269;28;21020;-83
2021/10/30 12:36:28;;;;;;;5.23;0.77;;;9.70;99.90;;;;;;5093356;28;21014;-83
2021/10/30 12:38:55;;;;;;;0.90;0.50;;;9.70;99.90;;;;;;5093308;28;20455;-82
2021/10/30 12:41:29;;;;;;;2.90;0.70;;;9.70;99.90;;;;;;5093457;28;20454;-82
2021/10/30 12:44:02;;;;;;;2.13;1.20;;;9.70;99.90;;;;;;5093495;28;20460;-82
2021/10/30 12:46:50;;;;;;;5.10;2.60;;;9.70;99.90;;;;;;5093706;28;20460;-75
2021/10/30 12:49:22;;;;;;;0.60;0.60;;;9.70;99.90;;;;;;5093448;28;20589;-87
2021/10/30 12:51:59;;;;;;;3.13;0.70;;;9.70;99.90;;;;;;5093227;28;20447;-81
2021/10/30 12:54:27;;;;;;;1.67;1.60;;;9.70;99.90;;;;;;5093410;28;20471;-81
2021/10/30 12:56:54;;;;;;;2.43;1.27;;;9.70;99.90;;;;;;5093423;28;20439;-85
2021/10/30 12:59:34;;;;;;;0.40;0.40;;;9.70;99.90;;;;;;5093487;28;20443;-84
2021/10/30 13:02:01;;;;;;;0.40;0.40;;;9.70;99.90;;;;;;5093425;28;20476;-84
2021/10/30 13:04:30;;;;;;;5.97;0.57;;;9.70;99.90;;;;;;5093129;28;20943;-84